sensor_id;sensor_type;location;lat;lon;timestamp;temperature;humidity
1381;DHT22;684;48.342;10.096;2022-09-25T00:01:41;11.30;43.40
1381;DHT22;684;48.342;10.096;2022-09-25T00:04:09;11.30;43.20
1381;DHT22;684;48.342;10.096;2022-09-25T00:06:36;11.30;43.10
1381;DHT22;684;48.342;10.096;2022-09-25T00:09:04;11.40;43.00
1381;DHT22;684;48.342;10.096;2022-09-25T00:11:33;11.50;42.90
1381;DHT22;684;48.342;10.096;2022-09-25T00:14:00;11.50;42.90
1381;DHT22;684;48.342;10.096;2022-09-25T00:16:29;11.50;43.10
1381;DHT22;684;48.342;10.096;2022-09-25T00:18:57;11.50;43.20
1381;DHT22;684;48.342;10.096;2022-09-25T00:21:44;11.50;43.30
1381;DHT22;684;48.342;10.096;2022-09-25T00:24:16;11.60;43.20
1381;DHT22;684;48.342;10.096;2022-09-25T00:26:43;11.60;43.40
1381;DHT22;684;48.342;10.096;2022-09-25T00:29:14;11.60;43.40
1381;DHT22;684;48.342;10.096;2022-09-25T00:31:41;11.70;43.60
1381;DHT22;684;48.342;10.096;2022-09-25T00:34:09;11.70;43.50
1381;DHT22;684;48.342;10.096;2022-09-25T00:36:36;11.70;43.60
1381;DHT22;684;48.342;10.096;2022-09-25T00:39:05;11.70;43.90
1381;DHT22;684;48.342;10.096;2022-09-25T00:41:33;11.70;44.00
1381;DHT22;684;48.342;10.096;2022-09-25T00:44:02;11.80;43.90
1381;DHT22;684;48.342;10.096;2022-09-25T00:46:32;11.80;43.80
1381;DHT22;684;48.342;10.096;2022-09-25T00:49:01;11.80;43.70
1381;DHT22;684;48.342;10.096;2022-09-25T00:51:33;11.90;43.90
1381;DHT22;684;48.342;10.096;2022-09-25T00:54:06;12.00;43.80
1381;DHT22;684;48.342;10.096;2022-09-25T00:56:37;12.00;43.80
1381;DHT22;684;48.342;10.096;2022-09-25T00:59:10;12.10;43.90
1381;DHT22;684;48.342;10.096;2022-09-25T01:01:39;12.10;43.90
1381;DHT22;684;48.342;10.096;2022-09-25T01:04:06;12.20;43.90
1381;DHT22;684;48.342;10.096;2022-09-25T01:06:34;12.30;44.00
1381;DHT22;684;48.342;10.096;2022-09-25T01:09:01;12.30;44.80
1381;DHT22;684;48.342;10.096;2022-09-25T01:11:30;12.30;44.00
1381;DHT22;684;48.342;10.096;2022-09-25T01:14:01;12.30;44.10
1381;DHT22;684;48.342;10.096;2022-09-25T01:16:33;12.30;44.10
1381;DHT22;684;48.342;10.096;2022-09-25T01:19:11;12.40;44.10
1381;DHT22;684;48.342;10.096;2022-09-25T01:21:43;12.40;44.00
1381;DHT22;684;48.342;10.096;2022-09-25T01:24:40;12.40;43.90
1381;DHT22;684;48.342;10.096;2022-09-25T01:27:43;12.40;44.40
1381;DHT22;684;48.342;10.096;2022-09-25T01:30:14;12.40;44.30
1381;DHT22;684;48.342;10.096;2022-09-25T01:32:53;12.40;44.00
1381;DHT22;684;48.342;10.096;2022-09-25T01:35:30;12.40;44.20
1381;DHT22;684;48.342;10.096;2022-09-25T01:38:06;12.40;44.00
1381;DHT22;684;48.342;10.096;2022-09-25T01:40:37;12.40;44.00
1381;DHT22;684;48.342;10.096;2022-09-25T01:43:11;12.40;44.00
1381;DHT22;684;48.342;10.096;2022-09-25T01:45:42;12.50;43.90
1381;DHT22;684;48.342;10.096;2022-09-25T01:48:13;12.50;44.00
1381;DHT22;684;48.342;10.096;2022-09-25T01:50:45;12.50;43.80
1381;DHT22;684;48.342;10.096;2022-09-25T01:53:17;12.50;43.80
1381;DHT22;684;48.342;10.096;2022-09-25T01:55:49;12.60;43.80
1381;DHT22;684;48.342;10.096;2022-09-25T01:58:21;12.60;43.80
1381;DHT22;684;48.342;10.096;2022-09-25T02:00:54;12.60;43.80
1381;DHT22;684;48.342;10.096;2022-09-25T02:03:27;12.60;43.80
1381;DHT22;684;48.342;10.096;2022-09-25T02:05:58;12.60;43.80
1381;DHT22;684;48.342;10.096;2022-09-25T02:08:29;12.60;43.80
1381;DHT22;684;48.342;10.096;2022-09-25T02:11:00;12.60;43.90
1381;DHT22;684;48.342;10.096;2022-09-25T02:13:33;12.70;43.80
1381;DHT22;684;48.342;10.096;2022-09-25T02:16:07;12.70;43.70
1381;DHT22;684;48.342;10.096;2022-09-25T02:18:36;12.70;43.80
1381;DHT22;684;48.342;10.096;2022-09-25T02:21:25;12.70;43.60
1381;DHT22;684;48.342;10.096;2022-09-25T02:23:58;12.80;43.50
1381;DHT22;684;48.342;10.096;2022-09-25T02:26:29;12.80;43.50
1381;DHT22;684;48.342;10.096;2022-09-25T02:28:57;12.80;43.30
1381;DHT22;684;48.342;10.096;2022-09-25T02:31:28;12.80;43.30
1381;DHT22;684;48.342;10.096;2022-09-25T02:33:56;12.80;43.30
1381;DHT22;684;48.342;10.096;2022-09-25T02:36:23;12.80;43.30
1381;DHT22;684;48.342;10.096;2022-09-25T02:38:51;12.80;43.20
1381;DHT22;684;48.342;10.096;2022-09-25T02:41:28;12.80;43.20
1381;DHT22;684;48.342;10.096;2022-09-25T02:44:04;12.80;43.20
1381;DHT22;684;48.342;10.096;2022-09-25T02:46:42;12.80;43.20
1381;DHT22;684;48.342;10.096;2022-09-25T02:49:16;12.80;43.40
1381;DHT22;684;48.342;10.096;2022-09-25T02:51:54;12.80;43.10
1381;DHT22;684;48.342;10.096;2022-09-25T02:54:24;12.90;43.20
1381;DHT22;684;48.342;10.096;2022-09-25T02:56:59;12.90;43.80
1381;DHT22;684;48.342;10.096;2022-09-25T02:59:32;12.90;43.20
1381;DHT22;684;48.342;10.096;2022-09-25T03:02:01;12.90;43.10
1381;DHT22;684;48.342;10.096;2022-09-25T03:04:30;12.90;43.10
1381;DHT22;684;48.342;10.096;2022-09-25T03:07:00;12.90;43.20
1381;DHT22;684;48.342;10.096;2022-09-25T03:09:28;12.90;43.30
1381;DHT22;684;48.342;10.096;2022-09-25T03:11:56;12.90;43.50
1381;DHT22;684;48.342;10.096;2022-09-25T03:14:25;12.90;43.50
1381;DHT22;684;48.342;10.096;2022-09-25T03:16:54;12.90;43.50
1381;DHT22;684;48.342;10.096;2022-09-25T03:19:25;12.90;43.60
1381;DHT22;684;48.342;10.096;2022-09-25T03:21:53;12.90;43.70
1381;DHT22;684;48.342;10.096;2022-09-25T03:24:20;12.90;43.50
1381;DHT22;684;48.342;10.096;2022-09-25T03:26:47;12.90;43.50
1381;DHT22;684;48.342;10.096;2022-09-25T03:29:14;12.90;43.50
1381;DHT22;684;48.342;10.096;2022-09-25T03:31:42;12.90;43.50
1381;DHT22;684;48.342;10.096;2022-09-25T03:34:10;12.90;43.40
1381;DHT22;684;48.342;10.096;2022-09-25T03:36:39;12.90;43.40
1381;DHT22;684;48.342;10.096;2022-09-25T03:39:07;12.90;43.40
1381;DHT22;684;48.342;10.096;2022-09-25T03:41:35;13.00;43.30
1381;DHT22;684;48.342;10.096;2022-09-25T03:44:02;13.00;43.20
1381;DHT22;684;48.342;10.096;2022-09-25T03:46:31;13.00;43.00
1381;DHT22;684;48.342;10.096;2022-09-25T03:48:58;13.00;43.00
1381;DHT22;684;48.342;10.096;2022-09-25T03:51:27;13.00;43.00
1381;DHT22;684;48.342;10.096;2022-09-25T03:53:56;13.00;43.00
1381;DHT22;684;48.342;10.096;2022-09-25T03:56:25;13.10;42.90
1381;DHT22;684;48.342;10.096;2022-09-25T03:58:52;13.10;43.00
1381;DHT22;684;48.342;10.096;2022-09-25T04:01:20;13.10;42.80
1381;DHT22;684;48.342;10.096;2022-09-25T04:03:47;13.10;42.80
1381;DHT22;684;48.342;10.096;2022-09-25T04:06:18;13.10;42.80
1381;DHT22;684;48.342;10.096;2022-09-25T04:08:46;13.10;42.80
1381;DHT22;684;48.342;10.096;2022-09-25T04:11:15;13.10;42.70
1381;DHT22;684;48.342;10.096;2022-09-25T04:13:42;13.10;42.60
1381;DHT22;684;48.342;10.096;2022-09-25T04:16:10;13.10;42.60
1381;DHT22;684;48.342;10.096;2022-09-25T04:18:38;13.10;42.60
1381;DHT22;684;48.342;10.096;2022-09-25T04:21:07;13.10;42.60
1381;DHT22;684;48.342;10.096;2022-09-25T04:23:35;13.10;42.60
1381;DHT22;684;48.342;10.096;2022-09-25T04:26:02;13.00;42.60
1381;DHT22;684;48.342;10.096;2022-09-25T04:28:31;13.10;43.30
1381;DHT22;684;48.342;10.096;2022-09-25T04:30:58;13.10;42.60
1381;DHT22;684;48.342;10.096;2022-09-25T04:33:25;13.10;42.50
1381;DHT22;684;48.342;10.096;2022-09-25T04:36:09;13.10;42.40
1381;DHT22;684;48.342;10.096;2022-09-25T04:38:35;13.10;42.40
1381;DHT22;684;48.342;10.096;2022-09-25T04:41:03;13.10;42.40
1381;DHT22;684;48.342;10.096;2022-09-25T04:43:32;13.10;42.50
1381;DHT22;684;48.342;10.096;2022-09-25T04:46:00;13.10;42.40
1381;DHT22;684;48.342;10.096;2022-09-25T04:48:28;13.10;42.30
1381;DHT22;684;48.342;10.096;2022-09-25T04:50:56;13.10;42.30
1381;DHT22;684;48.342;10.096;2022-09-25T04:53:23;13.10;42.20
1381;DHT22;684;48.342;10.096;2022-09-25T04:55:51;13.10;42.40
1381;DHT22;684;48.342;10.096;2022-09-25T04:58:18;13.10;42.40
1381;DHT22;684;48.342;10.096;2022-09-25T05:00:47;13.10;42.50
1381;DHT22;684;48.342;10.096;2022-09-25T05:03:14;13.10;42.50
1381;DHT22;684;48.342;10.096;2022-09-25T05:05:41;13.10;42.50
1381;DHT22;684;48.342;10.096;2022-09-25T05:08:08;13.10;42.40
1381;DHT22;684;48.342;10.096;2022-09-25T05:10:36;13.10;42.50
1381;DHT22;684;48.342;10.096;2022-09-25T05:13:04;13.10;42.50
1381;DHT22;684;48.342;10.096;2022-09-25T05:15:33;13.10;42.40
1381;DHT22;684;48.342;10.096;2022-09-25T05:18:04;13.10;42.30
1381;DHT22;684;48.342;10.096;2022-09-25T05:20:33;13.20;42.20
1381;DHT22;684;48.342;10.096;2022-09-25T05:23:00;13.20;42.10
1381;DHT22;684;48.342;10.096;2022-09-25T05:25:29;13.20;42.10
1381;DHT22;684;48.342;10.096;2022-09-25T05:27:57;13.20;42.10
1381;DHT22;684;48.342;10.096;2022-09-25T05:30:26;13.10;42.30
1381;DHT22;684;48.342;10.096;2022-09-25T05:32:53;13.10;42.30
1381;DHT22;684;48.342;10.096;2022-09-25T05:35:25;13.20;42.10
1381;DHT22;684;48.342;10.096;2022-09-25T05:37:52;13.20;42.00
1381;DHT22;684;48.342;10.096;2022-09-25T05:40:19;13.20;41.80
1381;DHT22;684;48.342;10.096;2022-09-25T05:42:48;13.30;41.60
1381;DHT22;684;48.342;10.096;2022-09-25T05:45:17;13.30;41.60
1381;DHT22;684;48.342;10.096;2022-09-25T05:47:44;13.30;41.80
1381;DHT22;684;48.342;10.096;2022-09-25T05:50:13;13.30;41.50
1381;DHT22;684;48.342;10.096;2022-09-25T05:52:41;13.30;41.60
1381;DHT22;684;48.342;10.096;2022-09-25T05:55:09;13.30;41.70
1381;DHT22;684;48.342;10.096;2022-09-25T05:57:36;13.30;41.80
1381;DHT22;684;48.342;10.096;2022-09-25T06:00:05;13.30;41.90
1381;DHT22;684;48.342;10.096;2022-09-25T06:02:33;13.30;42.50
1381;DHT22;684;48.342;10.096;2022-09-25T06:05:00;13.30;41.90
1381;DHT22;684;48.342;10.096;2022-09-25T06:07:26;13.40;42.00
1381;DHT22;684;48.342;10.096;2022-09-25T06:09:54;13.40;41.40
1381;DHT22;684;48.342;10.096;2022-09-25T06:12:21;13.40;41.40
1381;DHT22;684;48.342;10.096;2022-09-25T06:14:49;13.40;41.30
1381;DHT22;684;48.342;10.096;2022-09-25T06:17:16;13.40;41.00
1381;DHT22;684;48.342;10.096;2022-09-25T06:19:42;13.50;41.10
1381;DHT22;684;48.342;10.096;2022-09-25T06:22:09;13.50;41.00
1381;DHT22;684;48.342;10.096;2022-09-25T06:24:36;13.50;41.10
1381;DHT22;684;48.342;10.096;2022-09-25T06:27:05;13.60;40.90
1381;DHT22;684;48.342;10.096;2022-09-25T06:29:32;13.60;40.70
1381;DHT22;684;48.342;10.096;2022-09-25T06:31:58;13.60;40.70
1381;DHT22;684;48.342;10.096;2022-09-25T06:34:25;13.60;40.60
1381;DHT22;684;48.342;10.096;2022-09-25T06:36:52;13.60;40.60
1381;DHT22;684;48.342;10.096;2022-09-25T06:39:19;13.60;40.40
1381;DHT22;684;48.342;10.096;2022-09-25T06:41:46;13.60;41.00
1381;DHT22;684;48.342;10.096;2022-09-25T06:44:14;13.60;40.40
1381;DHT22;684;48.342;10.096;2022-09-25T06:46:41;13.60;40.20
1381;DHT22;684;48.342;10.096;2022-09-25T06:49:11;13.60;40.00
1381;DHT22;684;48.342;10.096;2022-09-25T06:51:39;13.60;39.80
1381;DHT22;684;48.342;10.096;2022-09-25T06:54:05;13.60;39.90
1381;DHT22;684;48.342;10.096;2022-09-25T06:56:32;13.60;40.00
1381;DHT22;684;48.342;10.096;2022-09-25T06:58:59;13.60;39.80
1381;DHT22;684;48.342;10.096;2022-09-25T07:01:27;13.70;39.80
1381;DHT22;684;48.342;10.096;2022-09-25T07:03:54;13.70;39.80
1381;DHT22;684;48.342;10.096;2022-09-25T07:06:21;13.70;39.70
1381;DHT22;684;48.342;10.096;2022-09-25T07:08:49;13.70;39.60
1381;DHT22;684;48.342;10.096;2022-09-25T07:11:17;13.70;39.60
1381;DHT22;684;48.342;10.096;2022-09-25T07:13:45;13.70;39.60
1381;DHT22;684;48.342;10.096;2022-09-25T07:16:13;13.70;39.50
1381;DHT22;684;48.342;10.096;2022-09-25T07:18:42;13.70;39.20
1381;DHT22;684;48.342;10.096;2022-09-25T07:21:10;13.70;39.10
1381;DHT22;684;48.342;10.096;2022-09-25T07:23:38;13.80;39.00
1381;DHT22;684;48.342;10.096;2022-09-25T07:26:08;13.90;39.30
1381;DHT22;684;48.342;10.096;2022-09-25T07:28:35;13.90;39.00
1381;DHT22;684;48.342;10.096;2022-09-25T07:31:10;14.00;38.90
1381;DHT22;684;48.342;10.096;2022-09-25T07:33:37;14.10;39.00
1381;DHT22;684;48.342;10.096;2022-09-25T07:36:05;14.20;38.50
1381;DHT22;684;48.342;10.096;2022-09-25T07:38:32;14.20;38.00
1381;DHT22;684;48.342;10.096;2022-09-25T07:41:01;14.30;37.70
1381;DHT22;684;48.342;10.096;2022-09-25T07:43:28;14.40;37.40
1381;DHT22;684;48.342;10.096;2022-09-25T07:45:55;14.40;37.40
1381;DHT22;684;48.342;10.096;2022-09-25T07:48:21;14.40;37.20
1381;DHT22;684;48.342;10.096;2022-09-25T07:50:48;14.40;37.10
1381;DHT22;684;48.342;10.096;2022-09-25T07:53:17;14.40;37.10
1381;DHT22;684;48.342;10.096;2022-09-25T07:55:43;14.40;37.20
1381;DHT22;684;48.342;10.096;2022-09-25T07:58:11;14.40;37.00
1381;DHT22;684;48.342;10.096;2022-09-25T08:00:37;14.40;36.90
1381;DHT22;684;48.342;10.096;2022-09-25T08:03:06;14.40;36.60
1381;DHT22;684;48.342;10.096;2022-09-25T08:05:33;14.30;36.90
1381;DHT22;684;48.342;10.096;2022-09-25T08:08:01;14.30;36.80
1381;DHT22;684;48.342;10.096;2022-09-25T08:10:29;14.30;36.80
1381;DHT22;684;48.342;10.096;2022-09-25T08:12:56;14.20;36.90
1381;DHT22;684;48.342;10.096;2022-09-25T08:15:23;14.20;37.20
1381;DHT22;684;48.342;10.096;2022-09-25T08:17:50;14.20;37.10
1381;DHT22;684;48.342;10.096;2022-09-25T08:20:18;14.20;37.10
1381;DHT22;684;48.342;10.096;2022-09-25T08:22:44;14.20;36.80
1381;DHT22;684;48.342;10.096;2022-09-25T08:25:12;14.10;36.90
1381;DHT22;684;48.342;10.096;2022-09-25T08:27:40;14.10;36.90
1381;DHT22;684;48.342;10.096;2022-09-25T08:30:09;14.00;37.10
1381;DHT22;684;48.342;10.096;2022-09-25T08:32:36;13.90;37.20
1381;DHT22;684;48.342;10.096;2022-09-25T08:35:04;13.90;37.30
1381;DHT22;684;48.342;10.096;2022-09-25T08:37:31;14.00;37.30
1381;DHT22;684;48.342;10.096;2022-09-25T08:39:58;14.10;37.50
1381;DHT22;684;48.342;10.096;2022-09-25T08:42:28;14.10;37.70
1381;DHT22;684;48.342;10.096;2022-09-25T08:45:00;14.10;37.40
1381;DHT22;684;48.342;10.096;2022-09-25T08:47:46;14.10;37.30
1381;DHT22;684;48.342;10.096;2022-09-25T08:50:31;14.20;37.10
1381;DHT22;684;48.342;10.096;2022-09-25T08:53:03;14.20;37.00
1381;DHT22;684;48.342;10.096;2022-09-25T08:55:35;14.20;36.90
1381;DHT22;684;48.342;10.096;2022-09-25T08:58:23;14.20;36.90
1381;DHT22;684;48.342;10.096;2022-09-25T09:00:52;14.30;36.90
1381;DHT22;684;48.342;10.096;2022-09-25T09:03:21;14.30;36.40
1381;DHT22;684;48.342;10.096;2022-09-25T09:05:54;14.40;36.50
1381;DHT22;684;48.342;10.096;2022-09-25T09:08:23;14.50;36.30
1381;DHT22;684;48.342;10.096;2022-09-25T09:10:53;14.60;36.30
1381;DHT22;684;48.342;10.096;2022-09-25T09:13:26;14.80;35.30
1381;DHT22;684;48.342;10.096;2022-09-25T09:15:58;15.10;35.20
1381;DHT22;684;48.342;10.096;2022-09-25T09:18:28;15.30;35.10
1381;DHT22;684;48.342;10.096;2022-09-25T09:20:57;15.50;34.20
1381;DHT22;684;48.342;10.096;2022-09-25T09:23:30;15.70;33.90
1381;DHT22;684;48.342;10.096;2022-09-25T09:26:01;15.90;32.80
1381;DHT22;684;48.342;10.096;2022-09-25T09:28:47;16.00;32.40
1381;DHT22;684;48.342;10.096;2022-09-25T09:31:21;16.00;32.00
1381;DHT22;684;48.342;10.096;2022-09-25T09:34:00;16.10;31.70
1381;DHT22;684;48.342;10.096;2022-09-25T09:36:32;16.20;31.30
1381;DHT22;684;48.342;10.096;2022-09-25T09:39:07;16.30;30.60
1381;DHT22;684;48.342;10.096;2022-09-25T09:41:47;16.40;30.40
1381;DHT22;684;48.342;10.096;2022-09-25T09:44:38;16.40;30.50
1381;DHT22;684;48.342;10.096;2022-09-25T09:47:23;16.50;30.40
1381;DHT22;684;48.342;10.096;2022-09-25T09:49:55;16.50;30.10
1381;DHT22;684;48.342;10.096;2022-09-25T09:52:27;16.60;29.30
1381;DHT22;684;48.342;10.096;2022-09-25T09:54:59;16.70;29.60
1381;DHT22;684;48.342;10.096;2022-09-25T09:57:31;17.00;29.60
1381;DHT22;684;48.342;10.096;2022-09-25T10:00:02;17.90;28.40
1381;DHT22;684;48.342;10.096;2022-09-25T10:02:34;19.30;25.20
1381;DHT22;684;48.342;10.096;2022-09-25T10:05:06;20.50;21.40
1381;DHT22;684;48.342;10.096;2022-09-25T10:07:36;20.70;19.10
1381;DHT22;684;48.342;10.096;2022-09-25T10:10:10;20.50;19.10
1381;DHT22;684;48.342;10.096;2022-09-25T10:12:38;20.20;19.80
1381;DHT22;684;48.342;10.096;2022-09-25T10:15:15;20.10;19.80
1381;DHT22;684;48.342;10.096;2022-09-25T10:17:45;20.60;19.90
1381;DHT22;684;48.342;10.096;2022-09-25T10:20:16;22.30;17.30
1381;DHT22;684;48.342;10.096;2022-09-25T10:22:45;23.50;14.40
1381;DHT22;684;48.342;10.096;2022-09-25T10:25:12;24.40;12.10
1381;DHT22;684;48.342;10.096;2022-09-25T10:27:40;24.80;10.50
1381;DHT22;684;48.342;10.096;2022-09-25T10:30:16;24.40;10.50
1381;DHT22;684;48.342;10.096;2022-09-25T10:32:59;23.80;10.90
1381;DHT22;684;48.342;10.096;2022-09-25T10:35:30;23.50;11.60
1381;DHT22;684;48.342;10.096;2022-09-25T10:38:15;24.90;11.00
1381;DHT22;684;48.342;10.096;2022-09-25T10:40:42;28.00;6.90
1381;DHT22;684;48.342;10.096;2022-09-25T10:43:17;29.60;2.80
1381;DHT22;684;48.342;10.096;2022-09-25T10:45:48;29.10;2.30
1381;DHT22;684;48.342;10.096;2022-09-25T10:48:27;27.90;3.70
1381;DHT22;684;48.342;10.096;2022-09-25T10:51:13;26.60;4.90
1381;DHT22;684;48.342;10.096;2022-09-25T10:53:42;25.30;7.10
1381;DHT22;684;48.342;10.096;2022-09-25T10:56:10;24.90;8.60
1381;DHT22;684;48.342;10.096;2022-09-25T10:58:40;24.50;9.00
1381;DHT22;684;48.342;10.096;2022-09-25T11:01:09;24.00;9.90
1381;DHT22;684;48.342;10.096;2022-09-25T11:03:48;23.60;11.40
1381;DHT22;684;48.342;10.096;2022-09-25T11:06:20;23.30;11.40
1381;DHT22;684;48.342;10.096;2022-09-25T11:08:53;23.10;11.70
1381;DHT22;684;48.342;10.096;2022-09-25T11:11:22;22.70;12.20
1381;DHT22;684;48.342;10.096;2022-09-25T11:13:53;22.50;12.90
1381;DHT22;684;48.342;10.096;2022-09-25T11:19:11;25.60;9.20
1381;DHT22;684;48.342;10.096;2022-09-25T11:21:40;26.70;6.20
1381;DHT22;684;48.342;10.096;2022-09-25T11:24:13;27.00;5.80
1381;DHT22;684;48.342;10.096;2022-09-25T11:26:46;26.50;6.00
1381;DHT22;684;48.342;10.096;2022-09-25T11:29:20;26.40;6.00
1381;DHT22;684;48.342;10.096;2022-09-25T11:31:50;26.20;6.80
1381;DHT22;684;48.342;10.096;2022-09-25T11:34:26;26.50;6.40
1381;DHT22;684;48.342;10.096;2022-09-25T11:37:03;26.70;6.10
1381;DHT22;684;48.342;10.096;2022-09-25T11:39:36;26.80;5.90
1381;DHT22;684;48.342;10.096;2022-09-25T11:42:27;26.80;5.60
1381;DHT22;684;48.342;10.096;2022-09-25T11:45:01;26.80;5.50
1381;DHT22;684;48.342;10.096;2022-09-25T11:47:39;26.60;5.70
1381;DHT22;684;48.342;10.096;2022-09-25T11:50:13;26.20;6.50
1381;DHT22;684;48.342;10.096;2022-09-25T11:52:48;25.60;7.10
1381;DHT22;684;48.342;10.096;2022-09-25T11:55:46;25.10;8.50
1381;DHT22;684;48.342;10.096;2022-09-25T11:58:28;24.50;9.10
1381;DHT22;684;48.342;10.096;2022-09-25T12:01:07;24.00;9.90
1381;DHT22;684;48.342;10.096;2022-09-25T12:03:54;23.50;10.90
1381;DHT22;684;48.342;10.096;2022-09-25T12:06:42;23.10;11.20
1381;DHT22;684;48.342;10.096;2022-09-25T12:09:34;22.90;12.10
1381;DHT22;684;48.342;10.096;2022-09-25T12:12:11;22.70;12.40
1381;DHT22;684;48.342;10.096;2022-09-25T12:14:46;22.70;13.40
1381;DHT22;684;48.342;10.096;2022-09-25T12:17:19;22.70;13.40
1381;DHT22;684;48.342;10.096;2022-09-25T12:19:52;22.50;13.50
1381;DHT22;684;48.342;10.096;2022-09-25T12:22:35;22.30;13.70
1381;DHT22;684;48.342;10.096;2022-09-25T12:25:10;22.00;13.90
1381;DHT22;684;48.342;10.096;2022-09-25T12:27:48;21.70;14.80
1381;DHT22;684;48.342;10.096;2022-09-25T12:30:18;21.30;14.60
1381;DHT22;684;48.342;10.096;2022-09-25T12:33:01;21.00;15.10
1381;DHT22;684;48.342;10.096;2022-09-25T12:35:39;20.60;15.10
1381;DHT22;684;48.342;10.096;2022-09-25T12:38:17;20.30;17.00
1381;DHT22;684;48.342;10.096;2022-09-25T12:40:49;20.00;18.30
1381;DHT22;684;48.342;10.096;2022-09-25T12:43:23;19.70;19.20
1381;DHT22;684;48.342;10.096;2022-09-25T12:45:53;19.50;19.70
1381;DHT22;684;48.342;10.096;2022-09-25T12:48:25;19.30;19.90
1381;DHT22;684;48.342;10.096;2022-09-25T12:51:00;19.10;21.10
1381;DHT22;684;48.342;10.096;2022-09-25T12:53:34;18.90;21.40
1381;DHT22;684;48.342;10.096;2022-09-25T12:56:07;18.70;21.60
1381;DHT22;684;48.342;10.096;2022-09-25T12:58:50;18.60;22.20
1381;DHT22;684;48.342;10.096;2022-09-25T13:01:22;18.40;22.70
1381;DHT22;684;48.342;10.096;2022-09-25T13:04:01;18.30;23.00
1381;DHT22;684;48.342;10.096;2022-09-25T13:06:35;18.20;23.10
1381;DHT22;684;48.342;10.096;2022-09-25T13:09:20;18.10;23.90
1381;DHT22;684;48.342;10.096;2022-09-25T13:11:50;17.90;24.50
1381;DHT22;684;48.342;10.096;2022-09-25T13:14:27;17.80;24.70
1381;DHT22;684;48.342;10.096;2022-09-25T13:16:56;17.70;25.30
1381;DHT22;684;48.342;10.096;2022-09-25T13:19:24;17.60;25.30
1381;DHT22;684;48.342;10.096;2022-09-25T13:22:01;17.60;25.80
1381;DHT22;684;48.342;10.096;2022-09-25T13:24:37;17.60;26.60
1381;DHT22;684;48.342;10.096;2022-09-25T13:27:08;17.60;26.60
1381;DHT22;684;48.342;10.096;2022-09-25T13:29:38;17.70;26.90
1381;DHT22;684;48.342;10.096;2022-09-25T13:32:13;17.90;26.70
1381;DHT22;684;48.342;10.096;2022-09-25T13:34:41;18.20;25.60
1381;DHT22;684;48.342;10.096;2022-09-25T13:37:09;18.40;25.70
1381;DHT22;684;48.342;10.096;2022-09-25T13:39:40;18.60;25.10
1381;DHT22;684;48.342;10.096;2022-09-25T13:42:28;18.90;24.60
1381;DHT22;684;48.342;10.096;2022-09-25T13:45:28;19.10;24.40
1381;DHT22;684;48.342;10.096;2022-09-25T13:48:07;19.20;23.00
1381;DHT22;684;48.342;10.096;2022-09-25T13:50:40;19.10;22.80
1381;DHT22;684;48.342;10.096;2022-09-25T13:53:24;19.00;22.80
1381;DHT22;684;48.342;10.096;2022-09-25T13:56:23;18.90;24.40
1381;DHT22;684;48.342;10.096;2022-09-25T13:59:19;18.90;24.50
1381;DHT22;684;48.342;10.096;2022-09-25T14:01:48;18.70;24.90
1381;DHT22;684;48.342;10.096;2022-09-25T14:07:18;18.40;24.80
1381;DHT22;684;48.342;10.096;2022-09-25T14:09:50;18.30;25.70
1381;DHT22;684;48.342;10.096;2022-09-25T14:12:37;18.20;25.80
1381;DHT22;684;48.342;10.096;2022-09-25T14:15:13;17.90;27.30
1381;DHT22;684;48.342;10.096;2022-09-25T14:17:44;17.80;27.70
1381;DHT22;684;48.342;10.096;2022-09-25T14:20:30;17.70;28.60
1381;DHT22;684;48.342;10.096;2022-09-25T14:22:58;17.60;28.90
1381;DHT22;684;48.342;10.096;2022-09-25T14:25:29;17.50;29.10
1381;DHT22;684;48.342;10.096;2022-09-25T14:28:00;17.50;29.10
1381;DHT22;684;48.342;10.096;2022-09-25T14:30:28;17.50;28.90
1381;DHT22;684;48.342;10.096;2022-09-25T14:33:13;17.50;28.80
1381;DHT22;684;48.342;10.096;2022-09-25T14:35:49;17.50;29.00
1381;DHT22;684;48.342;10.096;2022-09-25T14:38:39;17.50;28.90
1381;DHT22;684;48.342;10.096;2022-09-25T14:41:28;17.40;29.00
1381;DHT22;684;48.342;10.096;2022-09-25T14:44:14;17.40;29.00
1381;DHT22;684;48.342;10.096;2022-09-25T14:46:46;17.50;29.40
1381;DHT22;684;48.342;10.096;2022-09-25T14:49:21;17.50;29.30
1381;DHT22;684;48.342;10.096;2022-09-25T14:51:50;17.60;29.40
1381;DHT22;684;48.342;10.096;2022-09-25T14:54:21;17.70;29.30
1381;DHT22;684;48.342;10.096;2022-09-25T14:56:52;17.80;28.70
1381;DHT22;684;48.342;10.096;2022-09-25T14:59:27;17.80;28.50
1381;DHT22;684;48.342;10.096;2022-09-25T15:01:58;17.90;28.40
1381;DHT22;684;48.342;10.096;2022-09-25T15:04:27;17.90;28.40
1381;DHT22;684;48.342;10.096;2022-09-25T15:06:59;18.10;28.10
1381;DHT22;684;48.342;10.096;2022-09-25T15:09:29;18.10;27.70
1381;DHT22;684;48.342;10.096;2022-09-25T15:12:08;18.20;27.40
1381;DHT22;684;48.342;10.096;2022-09-25T15:14:56;18.10;27.30
1381;DHT22;684;48.342;10.096;2022-09-25T15:17:23;18.10;27.20
1381;DHT22;684;48.342;10.096;2022-09-25T15:19:49;18.00;26.90
1381;DHT22;684;48.342;10.096;2022-09-25T15:22:18;18.00;27.40
1381;DHT22;684;48.342;10.096;2022-09-25T15:24:49;17.90;28.10
1381;DHT22;684;48.342;10.096;2022-09-25T15:27:17;18.00;27.90
1381;DHT22;684;48.342;10.096;2022-09-25T15:29:46;18.20;27.10
1381;DHT22;684;48.342;10.096;2022-09-25T15:32:16;18.40;26.40
1381;DHT22;684;48.342;10.096;2022-09-25T15:34:44;18.70;25.00
1381;DHT22;684;48.342;10.096;2022-09-25T15:37:26;18.80;24.30
1381;DHT22;684;48.342;10.096;2022-09-25T15:39:54;18.80;23.00
1381;DHT22;684;48.342;10.096;2022-09-25T15:42:21;18.80;23.10
1381;DHT22;684;48.342;10.096;2022-09-25T15:44:50;18.80;22.60
1381;DHT22;684;48.342;10.096;2022-09-25T15:47:48;18.70;22.30
1381;DHT22;684;48.342;10.096;2022-09-25T15:50:20;18.60;21.90
1381;DHT22;684;48.342;10.096;2022-09-25T15:52:49;18.40;22.20
1381;DHT22;684;48.342;10.096;2022-09-25T15:55:17;18.30;22.60
1381;DHT22;684;48.342;10.096;2022-09-25T15:57:45;18.20;22.70
1381;DHT22;684;48.342;10.096;2022-09-25T16:00:19;18.10;22.90
1381;DHT22;684;48.342;10.096;2022-09-25T16:03:09;17.90;23.20
1381;DHT22;684;48.342;10.096;2022-09-25T16:05:57;17.80;23.50
1381;DHT22;684;48.342;10.096;2022-09-25T16:08:29;17.70;24.00
1381;DHT22;684;48.342;10.096;2022-09-25T16:11:05;17.60;24.30
1381;DHT22;684;48.342;10.096;2022-09-25T16:13:39;17.50;25.00
1381;DHT22;684;48.342;10.096;2022-09-25T16:16:17;17.40;25.00
1381;DHT22;684;48.342;10.096;2022-09-25T16:18:46;17.30;25.10
1381;DHT22;684;48.342;10.096;2022-09-25T16:21:16;17.20;25.20
1381;DHT22;684;48.342;10.096;2022-09-25T16:23:50;17.10;25.70
1381;DHT22;684;48.342;10.096;2022-09-25T16:26:20;17.00;25.90
1381;DHT22;684;48.342;10.096;2022-09-25T16:28:55;16.90;26.30
1381;DHT22;684;48.342;10.096;2022-09-25T16:31:24;16.90;26.50
1381;DHT22;684;48.342;10.096;2022-09-25T16:33:52;16.80;26.60
1381;DHT22;684;48.342;10.096;2022-09-25T16:36:22;16.80;27.00
1381;DHT22;684;48.342;10.096;2022-09-25T16:39:11;16.80;27.20